createdAt,value
2018-03-14T00:01:22.955Z,5.97
2018-03-14T00:03:50.366Z,5.93
2018-03-14T00:06:17.813Z,5.95
2018-03-14T00:08:45.230Z,5.90
2018-03-14T00:11:12.656Z,6.01
2018-03-14T00:13:40.083Z,6.01
2018-03-14T00:16:07.525Z,6.01
2018-03-14T00:18:34.956Z,5.98
2018-03-14T00:21:02.390Z,6.00
2018-03-14T00:23:29.836Z,6.03
2018-03-14T00:25:57.251Z,5.94
2018-03-14T00:28:24.762Z,6.01
2018-03-14T00:30:52.197Z,5.89
2018-03-14T00:33:19.636Z,6.06
2018-03-14T00:35:47.067Z,5.95
2018-03-14T00:38:14.498Z,5.79
2018-03-14T00:40:58.992Z,5.86
2018-03-14T00:43:26.436Z,5.84
2018-03-14T00:45:53.871Z,5.84
2018-03-14T00:48:21.304Z,5.84
2018-03-14T00:50:48.727Z,5.83
2018-03-14T00:53:16.165Z,5.92
2018-03-14T00:55:43.588Z,5.95
2018-03-14T00:58:11.075Z,5.79
2018-03-14T01:00:38.582Z,5.88
2018-03-14T01:03:06.046Z,5.91
2018-03-14T01:05:33.477Z,5.86
2018-03-14T01:08:00.931Z,5.83
2018-03-14T01:10:28.411Z,5.74
2018-03-14T01:12:55.860Z,5.77
2018-03-14T01:15:23.334Z,5.83
2018-03-14T01:18:07.353Z,5.86
2018-03-14T01:20:34.796Z,5.88
2018-03-14T01:23:02.223Z,5.80
2018-03-14T01:25:29.768Z,5.77
2018-03-14T01:27:57.518Z,5.85
2018-03-14T01:30:24.943Z,5.76
2018-03-14T01:32:52.380Z,5.64
2018-03-14T01:35:19.891Z,5.74
2018-03-14T01:37:47.331Z,5.66
2018-03-14T01:40:14.817Z,5.73
2018-03-14T01:42:42.258Z,5.73
2018-03-14T01:45:09.715Z,5.68
2018-03-14T01:47:37.276Z,5.63
2018-03-14T01:50:04.712Z,5.74
2018-03-14T01:52:32.146Z,5.72
2018-03-14T01:54:59.860Z,5.59
2018-03-14T01:57:27.312Z,5.61
2018-03-14T01:59:54.772Z,5.65
2018-03-14T02:02:22.203Z,5.64
2018-03-14T02:04:49.646Z,5.56
2018-03-14T02:07:17.071Z,5.70
2018-03-14T02:09:44.511Z,5.56
2018-03-14T02:12:11.983Z,5.56
2018-03-14T02:14:39.431Z,5.49
2018-03-14T02:17:07.076Z,5.53
2018-03-14T02:19:34.688Z,5.57
2018-03-14T02:22:02.184Z,5.63
2018-03-14T02:24:29.946Z,5.69
2018-03-14T02:27:00.829Z,5.68
2018-03-14T02:29:28.254Z,5.74
2018-03-14T02:31:55.955Z,5.63
2018-03-14T02:34:23.696Z,5.69
2018-03-14T02:37:01.852Z,5.67
2018-03-14T02:39:29.389Z,5.74
2018-03-14T02:41:56.845Z,5.73
2018-03-14T02:44:24.363Z,5.68
2018-03-14T02:46:51.847Z,5.79
2018-03-14T02:49:19.589Z,5.63
2018-03-14T02:51:47.043Z,5.52
2018-03-14T02:54:14.501Z,5.57
2018-03-14T02:56:41.927Z,5.67
2018-03-14T02:59:09.434Z,5.65
2018-03-14T03:01:36.988Z,5.76
2018-03-14T03:04:04.437Z,5.57
2018-03-14T03:06:31.898Z,5.62
2018-03-14T03:08:59.316Z,5.60
2018-03-14T03:11:26.751Z,5.62
2018-03-14T03:13:54.179Z,5.71
2018-03-14T03:16:21.919Z,5.57
2018-03-14T03:18:49.392Z,5.61
2018-03-14T03:21:16.849Z,5.52
2018-03-14T03:23:44.296Z,5.64
2018-03-14T03:26:11.770Z,5.57
2018-03-14T03:28:39.238Z,5.67
2018-03-14T03:31:06.700Z,5.62
2018-03-14T03:33:34.127Z,5.64
2018-03-14T03:36:01.567Z,5.63
2018-03-14T03:38:29.067Z,5.55
2018-03-14T03:40:56.803Z,5.47
2018-03-14T03:43:24.292Z,5.58
2018-03-14T03:45:51.834Z,5.64
2018-03-14T03:48:19.811Z,5.48
2018-03-14T03:50:47.297Z,5.41
2018-03-14T03:53:14.717Z,5.43
2018-03-14T03:55:45.060Z,5.44
2018-03-14T03:58:12.498Z,5.48
2018-03-14T04:00:40.214Z,5.51
2018-03-14T04:03:07.630Z,5.44
2018-03-14T04:05:35.083Z,5.50
2018-03-14T04:08:02.526Z,5.39
2018-03-14T04:10:29.939Z,5.42
2018-03-14T04:12:58.397Z,5.43
2018-03-14T04:15:25.896Z,5.53
2018-03-14T04:17:56.161Z,5.41
2018-03-14T04:20:23.582Z,5.43
2018-03-14T04:22:51.015Z,5.43
2018-03-14T04:25:18.447Z,5.42
2018-03-14T04:27:45.871Z,5.57
2018-03-14T04:30:13.343Z,5.55
2018-03-14T04:32:40.806Z,5.41
2018-03-14T04:35:08.263Z,5.28
2018-03-14T04:37:35.697Z,5.35
2018-03-14T04:40:03.115Z,5.20
2018-03-14T04:42:30.610Z,5.35
2018-03-14T04:44:58.023Z,5.36
2018-03-14T04:47:25.451Z,5.36
2018-03-14T04:49:52.862Z,5.30
2018-03-14T04:52:20.468Z,5.28
2018-03-14T04:54:47.930Z,5.37
2018-03-14T04:57:15.696Z,5.20
2018-03-14T04:59:43.427Z,5.12
2018-03-14T05:02:10.851Z,5.11
2018-03-14T05:04:38.267Z,5.33
2018-03-14T05:07:05.687Z,5.14
2018-03-14T05:09:33.105Z,5.24
2018-03-14T05:12:00.537Z,5.41
2018-03-14T05:14:27.993Z,5.29
2018-03-14T05:19:48.331Z,5.35
2018-03-14T05:22:15.774Z,5.37
2018-03-14T05:24:43.382Z,5.29
2018-03-14T05:27:10.799Z,5.30
2018-03-14T05:29:38.244Z,5.24
2018-03-14T05:32:08.017Z,5.19
2018-03-14T05:34:35.453Z,5.20
2018-03-14T05:37:03.355Z,5.25
2018-03-14T05:39:30.830Z,5.41
2018-03-14T05:41:58.249Z,5.41
2018-03-14T05:44:25.776Z,5.29
2018-03-14T05:46:54.654Z,5.22
2018-03-14T05:49:22.101Z,5.43
2018-03-14T05:51:49.544Z,5.26
2018-03-14T05:54:17.027Z,5.22
2018-03-14T05:56:44.679Z,5.26
2018-03-14T05:59:12.123Z,5.27
2018-03-14T06:01:39.533Z,5.35
2018-03-14T06:04:06.963Z,5.47
2018-03-14T06:06:34.402Z,5.47
2018-03-14T06:09:01.860Z,5.52
2018-03-14T06:11:29.282Z,5.45
2018-03-14T06:13:56.723Z,5.56
2018-03-14T06:16:24.224Z,5.54
2018-03-14T06:18:51.624Z,5.57
2018-03-14T06:21:19.975Z,5.59
2018-03-14T06:23:47.451Z,5.53
2018-03-14T06:26:14.893Z,5.49
2018-03-14T06:28:42.354Z,5.58
2018-03-14T06:31:09.811Z,5.69
2018-03-14T06:33:37.271Z,5.67
2018-03-14T06:36:07.449Z,5.74
2018-03-14T06:38:34.951Z,5.83
2018-03-14T06:41:02.412Z,6.04
2018-03-14T06:43:29.871Z,6.05
2018-03-14T06:45:59.480Z,5.90
2018-03-14T06:48:26.927Z,6.05
2018-03-14T06:50:54.386Z,6.23
2018-03-14T06:53:21.847Z,6.02
2018-03-14T06:55:49.309Z,6.07
2018-03-14T06:58:28.447Z,6.11
2018-03-14T07:01:07.454Z,6.16
2018-03-14T07:03:46.488Z,6.26
2018-03-14T07:06:15.240Z,6.37
2018-03-14T07:08:42.655Z,6.40
2018-03-14T07:11:10.097Z,6.53
2018-03-14T07:13:37.559Z,6.67
2018-03-14T07:16:05.013Z,6.69
2018-03-14T07:18:32.459Z,6.60
2018-03-14T07:20:59.923Z,6.79
2018-03-14T07:23:27.373Z,6.77
2018-03-14T07:25:54.831Z,6.86
2018-03-14T07:28:22.244Z,6.98
2018-03-14T07:30:49.677Z,7.02
2018-03-14T07:33:17.136Z,7.10
2018-03-14T07:35:44.593Z,7.18
2018-03-14T07:38:12.053Z,7.03
2018-03-14T07:40:39.515Z,7.26
2018-03-14T07:43:07.345Z,7.23
2018-03-14T07:45:34.800Z,7.34
2018-03-14T07:48:02.259Z,7.18
2018-03-14T07:50:29.716Z,7.07
2018-03-14T07:52:57.174Z,7.57
2018-03-14T07:55:24.631Z,7.79
2018-03-14T07:57:52.094Z,8.00
2018-03-14T08:00:19.558Z,8.14
2018-03-14T08:02:49.462Z,8.14
2018-03-14T08:05:16.919Z,8.19
2018-03-14T08:07:44.431Z,8.12
2018-03-14T08:10:11.840Z,7.90
2018-03-14T08:12:39.295Z,8.15
2018-03-14T08:15:10.441Z,8.03
2018-03-14T08:17:37.900Z,8.13
2018-03-14T08:20:05.353Z,8.10
2018-03-14T08:22:32.814Z,8.08
2018-03-14T08:25:00.335Z,8.29
2018-03-14T08:27:27.734Z,8.19
2018-03-14T08:29:55.197Z,8.24
2018-03-14T08:32:22.642Z,8.34
2018-03-14T08:34:50.178Z,8.59
2018-03-14T08:37:17.606Z,8.87
2018-03-14T08:39:45.036Z,8.99
2018-03-14T08:42:12.479Z,8.77
2018-03-14T08:44:39.932Z,8.97
2018-03-14T08:47:07.391Z,8.91
2018-03-14T08:49:34.847Z,9.02
2018-03-14T08:52:02.306Z,9.15
2018-03-14T08:54:29.727Z,9.10
2018-03-14T08:56:57.162Z,9.20
2018-03-14T08:59:24.608Z,9.49
2018-03-14T09:01:54.763Z,9.79
2018-03-14T09:04:22.271Z,9.74
2018-03-14T09:06:49.755Z,9.75
2018-03-14T09:09:18.201Z,9.61
2018-03-14T09:11:45.663Z,9.56
2018-03-14T09:14:13.111Z,9.59
2018-03-14T09:16:40.570Z,9.43
2018-03-14T09:19:08.029Z,9.61
2018-03-14T09:21:36.883Z,9.83
2018-03-14T09:24:04.384Z,9.97
2018-03-14T09:26:31.839Z,9.81
2018-03-14T09:28:59.306Z,9.70
2018-03-14T09:31:26.783Z,9.61
2018-03-14T09:33:57.934Z,9.69
2018-03-14T09:36:25.406Z,9.69
2018-03-14T09:38:52.850Z,9.52
2018-03-14T09:41:20.306Z,9.25
2018-03-14T09:43:47.765Z,9.27
2018-03-14T09:46:15.222Z,9.49
2018-03-14T09:48:42.681Z,9.51
2018-03-14T09:51:10.127Z,9.33
2018-03-14T09:53:37.587Z,9.72
2018-03-14T09:56:05.036Z,9.77
2018-03-14T09:58:32.510Z,9.63
2018-03-14T10:00:59.964Z,9.87
2018-03-14T10:03:27.488Z,10.05
2018-03-14T10:05:54.954Z,10.11
2018-03-14T10:08:22.404Z,10.20
2018-03-14T10:10:49.811Z,10.09
2018-03-14T10:13:17.239Z,10.19
2018-03-14T10:15:44.692Z,9.84
2018-03-14T10:18:12.191Z,9.89
2018-03-14T10:20:39.622Z,9.75
2018-03-14T10:23:08.669Z,9.97
2018-03-14T10:25:36.801Z,9.81
2018-03-14T10:28:04.217Z,9.46
2018-03-14T10:30:31.676Z,9.62
2018-03-14T10:32:59.104Z,10.22
2018-03-14T10:35:26.534Z,10.45
2018-03-14T10:37:53.965Z,10.06
2018-03-14T10:40:21.448Z,9.90
2018-03-14T10:42:52.695Z,10.08
2018-03-14T10:45:20.116Z,9.66
2018-03-14T10:47:47.567Z,9.78
2018-03-14T10:50:15.024Z,10.03
2018-03-14T10:52:42.485Z,9.59
2018-03-14T10:55:09.942Z,9.64
2018-03-14T10:57:37.400Z,9.78
2018-03-14T11:00:05.698Z,9.34
2018-03-14T11:02:33.247Z,9.31
2018-03-14T11:05:00.692Z,9.37
2018-03-14T11:07:28.096Z,9.34
2018-03-14T11:09:55.547Z,9.69
2018-03-14T11:12:23.002Z,10.04
2018-03-14T11:14:50.523Z,9.83
2018-03-14T11:17:17.986Z,9.66
2018-03-14T11:19:45.438Z,9.97
2018-03-14T11:22:12.899Z,10.08
2018-03-14T11:24:40.353Z,10.20
2018-03-14T11:27:07.816Z,9.72
2018-03-14T11:29:35.270Z,9.87
2018-03-14T11:32:02.740Z,10.05
2018-03-14T11:34:30.187Z,10.26
2018-03-14T11:36:57.644Z,10.03
2018-03-14T11:39:25.277Z,10.20
2018-03-14T11:41:53.174Z,10.76
2018-03-14T11:44:20.631Z,11.21
2018-03-14T11:46:48.089Z,11.67
2018-03-14T11:49:15.549Z,11.71
2018-03-14T11:51:43.005Z,11.00
2018-03-14T11:54:10.463Z,11.30
2018-03-14T11:56:37.920Z,11.28
2018-03-14T11:59:05.380Z,11.26
2018-03-14T12:01:32.837Z,11.48
2018-03-14T12:04:05.530Z,11.09
2018-03-14T12:06:33.005Z,11.48
2018-03-14T12:09:00.432Z,11.49
2018-03-14T12:11:31.598Z,11.52
2018-03-14T12:13:59.038Z,12.01
2018-03-14T12:16:26.492Z,12.57
2018-03-14T12:18:53.894Z,12.22
2018-03-14T12:21:21.331Z,11.62
2018-03-14T12:23:48.797Z,11.34
2018-03-14T12:26:16.334Z,11.08
2018-03-14T12:28:43.793Z,11.18
2018-03-14T12:31:11.243Z,11.36
2018-03-14T12:33:38.696Z,11.15
2018-03-14T12:36:06.156Z,11.19
2018-03-14T12:38:33.612Z,11.22
2018-03-14T12:41:01.083Z,11.17
2018-03-14T12:43:31.812Z,11.21
2018-03-14T12:45:59.296Z,10.73
2018-03-14T12:48:26.729Z,11.13
2018-03-14T12:50:54.203Z,11.50
2018-03-14T12:53:21.736Z,11.80
2018-03-14T12:55:52.269Z,11.70
2018-03-14T12:58:19.726Z,11.40
2018-03-14T13:00:47.182Z,11.17
2018-03-14T13:03:14.721Z,11.61
2018-03-14T13:05:42.120Z,11.34
2018-03-14T13:08:12.244Z,11.41
2018-03-14T13:10:39.778Z,10.97
2018-03-14T13:13:07.236Z,11.02
2018-03-14T13:15:34.694Z,10.88
2018-03-14T13:18:02.165Z,10.89
2018-03-14T13:20:29.612Z,11.03
2018-03-14T13:22:57.068Z,10.72
2018-03-14T13:25:24.527Z,10.89
2018-03-14T13:27:51.985Z,10.86
2018-03-14T13:30:19.444Z,11.01
2018-03-14T13:32:48.507Z,10.90
2018-03-14T13:35:16.816Z,10.58
2018-03-14T13:37:44.279Z,10.72
2018-03-14T13:40:11.737Z,10.62
2018-03-14T13:42:39.187Z,10.75
2018-03-14T13:45:06.647Z,10.74
2018-03-14T13:47:34.123Z,10.94
2018-03-14T13:50:01.564Z,10.95
2018-03-14T13:52:29.020Z,11.08
2018-03-14T13:54:58.842Z,11.16
2018-03-14T13:57:26.393Z,11.42
2018-03-14T13:59:53.849Z,11.22
2018-03-14T14:02:21.308Z,11.12
2018-03-14T14:04:48.783Z,11.27
2018-03-14T14:07:16.225Z,10.96
2018-03-14T14:09:43.698Z,11.17
2018-03-14T14:12:11.132Z,11.38
2018-03-14T14:14:38.598Z,11.24
2018-03-14T14:17:06.056Z,11.16
2018-03-14T14:19:33.820Z,10.80
2018-03-14T14:22:01.246Z,10.81
2018-03-14T14:24:28.741Z,10.98
2018-03-14T14:26:56.203Z,10.77
2018-03-14T14:29:23.684Z,10.69
2018-03-14T14:31:51.109Z,10.91
2018-03-14T14:34:18.567Z,10.93
2018-03-14T14:36:46.025Z,11.16
2018-03-14T14:39:13.483Z,11.09
2018-03-14T14:41:40.943Z,11.16
2018-03-14T14:44:08.414Z,11.48
2018-03-14T14:46:36.033Z,11.31
2018-03-14T14:49:03.623Z,11.22
2018-03-14T14:51:34.053Z,10.85
2018-03-14T14:54:01.583Z,10.85
2018-03-14T14:56:29.069Z,10.78
2018-03-14T14:58:56.524Z,10.77
2018-03-14T15:01:23.985Z,10.50
2018-03-14T15:03:52.671Z,10.28
2018-03-14T15:06:20.144Z,10.48
2018-03-14T15:08:48.070Z,10.53
2018-03-14T15:11:15.574Z,10.49
2018-03-14T15:13:46.801Z,10.55
2018-03-14T15:16:14.251Z,10.49
2018-03-14T15:18:41.716Z,10.52
2018-03-14T15:21:09.230Z,10.54
2018-03-14T15:23:36.644Z,10.60
2018-03-14T15:26:04.094Z,10.66
2018-03-14T15:28:31.553Z,10.81
2018-03-14T15:31:03.647Z,10.75
2018-03-14T15:33:31.388Z,10.70
2018-03-14T15:36:00.689Z,10.64
2018-03-14T15:38:30.786Z,10.74
2018-03-14T15:41:06.401Z,10.61
2018-03-14T15:43:33.824Z,10.85
2018-03-14T15:46:01.273Z,10.60
2018-03-14T15:48:29.067Z,10.52
2018-03-14T15:50:56.915Z,10.57
2018-03-14T15:53:25.004Z,10.58
2018-03-14T15:55:52.455Z,10.47
2018-03-14T15:58:20.151Z,10.47
2018-03-14T16:00:47.579Z,10.45
2018-03-14T16:03:15.128Z,10.42
2018-03-14T16:05:42.680Z,10.40
2018-03-14T16:08:10.102Z,10.32
2018-03-14T16:10:37.531Z,10.27
2018-03-14T16:13:04.987Z,10.20
2018-03-14T16:15:32.428Z,10.09
2018-03-14T16:17:59.871Z,10.14
2018-03-14T16:20:27.299Z,10.07
2018-03-14T16:22:54.883Z,10.05
2018-03-14T16:25:22.300Z,10.02
2018-03-14T16:27:49.732Z,10.14
2018-03-14T16:30:17.164Z,10.05
2018-03-14T16:32:44.599Z,9.94
2018-03-14T16:35:12.017Z,9.94
2018-03-14T16:37:39.436Z,9.92
2018-03-14T16:40:06.848Z,9.86
2018-03-14T16:42:34.291Z,9.78
2018-03-14T16:45:01.908Z,9.77
2018-03-14T16:47:29.356Z,9.65
2018-03-14T16:49:56.773Z,9.66
2018-03-14T16:52:24.206Z,9.73
2018-03-14T16:54:51.625Z,9.53
2018-03-14T16:57:19.058Z,9.44
2018-03-14T16:59:46.488Z,9.34
2018-03-14T17:02:13.903Z,9.14
2018-03-14T17:04:41.328Z,9.10
2018-03-14T17:07:14.749Z,8.99
2018-03-14T17:09:42.229Z,8.93
2018-03-14T17:12:09.658Z,8.90
2018-03-14T17:14:37.099Z,8.80
2018-03-14T17:17:04.505Z,8.62
2018-03-14T17:19:31.914Z,8.59
2018-03-14T17:22:02.723Z,8.45
2018-03-14T17:24:30.152Z,8.43
2018-03-14T17:26:57.687Z,8.32
2018-03-14T17:29:25.139Z,8.23
2018-03-14T17:31:52.539Z,8.20
2018-03-14T17:34:19.976Z,8.12
2018-03-14T17:36:47.386Z,7.88
2018-03-14T17:39:14.844Z,7.82
2018-03-14T17:41:42.252Z,7.79
2018-03-14T17:44:09.693Z,7.79
2018-03-14T17:46:37.114Z,7.73
2018-03-14T17:49:04.557Z,7.65
2018-03-14T17:51:32.561Z,7.65
2018-03-14T17:53:59.989Z,7.56
2018-03-14T17:56:27.412Z,7.47
2018-03-14T17:58:54.848Z,7.43
2018-03-14T18:01:22.272Z,7.38
2018-03-14T18:03:49.695Z,7.28
2018-03-14T18:06:17.116Z,7.32
2018-03-14T18:08:44.570Z,7.23
2018-03-14T18:11:11.990Z,7.13
2018-03-14T18:13:39.404Z,7.12
2018-03-14T18:16:06.865Z,7.11
2018-03-14T18:18:34.307Z,7.08
2018-03-14T18:21:02.869Z,7.04
2018-03-14T18:23:30.457Z,6.98
2018-03-14T18:25:57.887Z,6.92
2018-03-14T18:28:25.516Z,6.97
2018-03-14T18:30:52.937Z,6.94
2018-03-14T18:33:20.384Z,6.93
2018-03-14T18:35:47.839Z,6.78
2018-03-14T18:38:15.260Z,6.69
2018-03-14T18:40:42.679Z,6.49
2018-03-14T18:43:10.179Z,6.28
2018-03-14T18:45:37.606Z,6.21
2018-03-14T18:48:05.088Z,6.14
2018-03-14T18:50:32.499Z,6.08
2018-03-14T18:52:59.961Z,6.00
2018-03-14T18:55:27.395Z,5.98
2018-03-14T18:57:54.831Z,5.94
2018-03-14T19:00:22.298Z,5.94
2018-03-14T19:02:49.705Z,5.89
2018-03-14T19:05:17.221Z,5.86
2018-03-14T19:07:44.641Z,5.86
2018-03-14T19:10:12.063Z,5.93
2018-03-14T19:12:39.475Z,5.90
2018-03-14T19:15:06.894Z,5.93
2018-03-14T19:17:34.305Z,6.01
2018-03-14T19:20:01.719Z,6.05
2018-03-14T19:22:29.464Z,6.04
2018-03-14T19:24:56.883Z,6.03
2018-03-14T19:27:24.311Z,6.03
2018-03-14T19:29:51.817Z,6.01
2018-03-14T19:32:19.270Z,5.97
2018-03-14T19:34:46.680Z,5.92
2018-03-14T19:37:14.192Z,5.77
2018-03-14T19:39:41.687Z,5.76
2018-03-14T19:42:09.120Z,5.77
2018-03-14T19:44:36.556Z,5.72
2018-03-14T19:47:03.984Z,5.71
2018-03-14T19:49:31.407Z,5.74
2018-03-14T19:51:58.945Z,5.68
2018-03-14T19:54:26.374Z,5.64
2018-03-14T19:56:53.827Z,5.63
2018-03-14T19:59:21.264Z,5.66
2018-03-14T20:01:48.690Z,5.66
2018-03-14T20:04:16.133Z,5.67
2018-03-14T20:06:43.570Z,5.73
2018-03-14T20:09:10.993Z,5.78
2018-03-14T20:11:38.415Z,5.86
2018-03-14T20:14:05.834Z,5.85
2018-03-14T20:16:33.262Z,5.81
2018-03-14T20:19:00.696Z,5.81
2018-03-14T20:21:28.135Z,5.84
2018-03-14T20:23:55.949Z,5.83
2018-03-14T20:26:23.385Z,5.78
2018-03-14T20:28:50.802Z,5.71
2018-03-14T20:31:20.213Z,5.67
2018-03-14T20:33:47.835Z,5.63
2018-03-14T20:36:15.283Z,5.56
2018-03-14T20:38:42.754Z,5.49
2018-03-14T20:41:10.185Z,5.35
2018-03-14T20:43:37.658Z,5.19
2018-03-14T20:46:05.099Z,5.15
2018-03-14T20:48:32.567Z,5.09
2018-03-14T20:51:00.055Z,5.08
2018-03-14T20:53:27.532Z,5.00
2018-03-14T20:55:54.988Z,5.02
2018-03-14T20:58:22.468Z,5.01
2018-03-14T21:00:50.212Z,5.08
2018-03-14T21:03:17.700Z,4.98
2018-03-14T21:05:45.132Z,4.92
2018-03-14T21:08:37.694Z,4.87
2018-03-14T21:11:05.216Z,4.77
2018-03-14T21:13:32.696Z,4.70
2018-03-14T21:16:01.711Z,4.56
2018-03-14T21:18:29.158Z,4.49
2018-03-14T21:21:16.778Z,4.44
2018-03-14T21:23:44.197Z,4.36
2018-03-14T21:26:11.620Z,4.00
2018-03-14T21:28:39.055Z,3.99
2018-03-14T21:31:06.575Z,3.89
2018-03-14T21:33:33.915Z,3.88
2018-03-14T21:36:01.348Z,3.85
2018-03-14T21:38:28.787Z,3.77
2018-03-14T21:40:58.113Z,3.63
2018-03-14T21:43:25.526Z,3.43
2018-03-14T21:45:52.950Z,3.41
2018-03-14T21:48:20.358Z,3.40
2018-03-14T21:50:47.776Z,3.43
2018-03-14T21:53:15.190Z,3.54
2018-03-14T21:55:42.607Z,3.67
2018-03-14T21:58:10.019Z,3.84
2018-03-14T22:02:40.479Z,3.92
2018-03-14T22:05:07.889Z,3.99
2018-03-14T22:07:35.303Z,4.03
2018-03-14T22:10:02.714Z,4.05
2018-03-14T22:12:30.125Z,4.06
2018-03-14T22:14:57.544Z,4.00
2018-03-14T22:17:24.959Z,3.93
2018-03-14T22:19:52.388Z,3.87
2018-03-14T22:22:19.778Z,3.83
2018-03-14T22:24:47.197Z,3.77
2018-03-14T22:27:14.674Z,3.77
2018-03-14T22:29:42.123Z,3.74
2018-03-14T22:32:09.525Z,3.77
2018-03-14T22:34:36.942Z,3.78
2018-03-14T22:37:04.395Z,3.85
2018-03-14T22:39:31.772Z,3.88
2018-03-14T22:41:59.183Z,3.80
2018-03-14T22:44:26.593Z,3.74
2018-03-14T22:46:53.997Z,3.81
2018-03-14T22:49:21.417Z,3.82
2018-03-14T22:51:48.826Z,3.88
2018-03-14T22:54:16.248Z,3.93
2018-03-14T22:56:43.650Z,3.91
2018-03-14T22:59:11.049Z,3.86
2018-03-14T23:01:38.470Z,3.93
2018-03-14T23:04:05.874Z,3.90
2018-03-14T23:06:33.287Z,3.83
2018-03-14T23:09:01.183Z,3.84
2018-03-14T23:11:28.595Z,3.73
2018-03-14T23:13:55.999Z,3.65
2018-03-14T23:16:23.411Z,3.55
2018-03-14T23:18:50.822Z,3.47
2018-03-14T23:21:18.242Z,3.38
2018-03-14T23:23:45.686Z,3.33
2018-03-14T23:26:13.094Z,3.23
2018-03-14T23:28:40.502Z,3.16
2018-03-14T23:31:07.928Z,3.08
2018-03-14T23:33:35.371Z,3.03
2018-03-14T23:36:02.782Z,3.07
2018-03-14T23:38:30.199Z,3.13
2018-03-14T23:40:57.610Z,3.05
2018-03-14T23:43:25.014Z,3.01
2018-03-14T23:45:52.429Z,2.87
2018-03-14T23:48:19.842Z,2.77
2018-03-14T23:50:47.266Z,2.67
2018-03-14T23:53:14.670Z,2.56
2018-03-14T23:55:42.094Z,2.54
2018-03-14T23:58:09.505Z,2.41
